Montfaucon

FR-0937 · Lot, Linguadoca-Rossiglione-Midi-Pirenei, Francia

Storia di METAR FR-0937 · Montfaucon

Di seguito sono riportati i METAR degli ultimi giorni. Seleziona un anno per sfogliare i METAR più vecchi, dall'anno 2007 in poi.

15 luglio 2024

Tempo Codice Tempo meteorologico Temp. Vista Base nuvolosa Vento METAR/SPECI
04:00
V
16 °C 10 km+ - 130° 130° 2 kt METAR LFSL 150200Z AUTO 13002KT CAVOK 16/15 Q1011
03:30
V
16 °C 10 km+ - Var Var 1 kt METAR LFSL 150130Z AUTO VRB01KT CAVOK 16/14 Q1011
03:00
V
16 °C 10 km+ - 360° 360° 0 kt METAR LFSL 150100Z AUTO 00000KT CAVOK 16/14 Q1012
02:30
V
16 °C 10 km+ - 360° 360° 0 kt METAR LFSL 150030Z AUTO 00000KT CAVOK 16/15 Q1012
02:00
V
17 °C 10 km+ - 360° 360° 0 kt METAR LFSL 150000Z AUTO 00000KT CAVOK 17/15 Q1012
01:30
V
17 °C 10 km+ - 360° 360° 0 kt METAR LFSL 142330Z AUTO 00000KT CAVOK 17/15 Q1012
01:00
V
18 °C 10 km+ - 360° 360° 0 kt METAR LFSL 142300Z AUTO 00000KT CAVOK 18/15 Q1013
00:30
V
18 °C 10 km+ - 360° 360° 0 kt METAR LFSL 142230Z AUTO 00000KT CAVOK 18/16 Q1013
00:00
V
19 °C 10 km+ - 360° 360° 0 kt METAR LFSL 142200Z AUTO 00000KT CAVOK 19/16 Q1013

14 luglio 2024

Tempo Codice Tempo meteorologico Temp. Vista Base nuvolosa Vento METAR/SPECI
23:30
V
19 °C 10 km+ - 360° 360° 0 kt METAR LFSL 142130Z AUTO 00000KT CAVOK 19/16 Q1013
23:00
V
20 °C 10 km+ - 360° 360° 0 kt METAR LFSL 142100Z AUTO 00000KT CAVOK 20/16 Q1013
22:30
V
20 °C 10 km+ - 360° 360° 0 kt METAR LFSL 142030Z AUTO 00000KT CAVOK 20/16 Q1013
22:00
V
21 °C 10 km+ - 360° 360° 0 kt METAR LFSL 142000Z AUTO 00000KT CAVOK 21/17 Q1013 NOSIG
21:30
V
23 °C 10 km+ - Var Var 1 kt METAR LFSL 141930Z AUTO VRB01KT CAVOK 23/16 Q1013 NOSIG
21:00
V
24 °C 10 km+ - 310° 310° 3 kt METAR LFSL 141900Z AUTO 31003KT CAVOK 24/16 Q1013 NOSIG
20:30
V
25 °C 10 km+ - 300° 300° 3 kt METAR LFSL 141830Z AUTO 30003KT CAVOK 25/15 Q1013 NOSIG
20:00
V
25 °C 10 km+ - 310° 310° 3 kt METAR LFSL 141800Z AUTO 31003KT CAVOK 25/15 Q1013 NOSIG
19:30
V
25 °C 10 km+ - 340° 340° 5 kt METAR LFSL 141730Z AUTO 34005KT 300V360 CAVOK 25/15 Q1013 NOSIG
19:00
V
26 °C 10 km+ - 340° 340° 6 kt METAR LFSL 141700Z AUTO 34006KT 290V010 CAVOK 26/15 Q1012 NOSIG
18:30
V
26 °C 10 km+ - 330° 330° 6 kt METAR LFSL 141630Z AUTO 33006KT 270V010 CAVOK 26/15 Q1012 NOSIG
18:00
V
26 °C 10 km+ - 330° 330° 6 kt METAR LFSL 141600Z AUTO 33006KT 270V020 CAVOK 26/15 Q1013 TEMPO SCT060TCU
17:30
V
27 °C 10 km+ - 320° 320° 7 kt METAR LFSL 141530Z AUTO 32007KT 290V010 CAVOK 27/14 Q1013 TEMPO SCT060TCU
17:00
V
26 °C 10 km+ - 350° 350° 5 kt METAR LFSL 141500Z AUTO 35005KT 280V020 CAVOK 26/13 Q1012 TEMPO SCT060TCU
16:30
V
26 °C 10 km+ - 010° 010° 6 kt METAR LFSL 141430Z AUTO 01006KT 340V050 CAVOK 26/14 Q1013 NOSIG
16:00
V
26 °C 10 km+ - 350° 350° 4 kt METAR LFSL 141400Z AUTO 35004KT 250V050 CAVOK 26/14 Q1013 TEMPO SCT060TCU
15:30
V
26 °C 10 km+ - Var Var 5 kt METAR LFSL 141330Z AUTO VRB05KT CAVOK 26/15 Q1013 TEMPO SCT060TCU
15:00
V
25 °C 10 km+ - 350° 350° 7 kt METAR LFSL 141300Z AUTO 35007KT 320V030 CAVOK 25/14 Q1013 TEMPO SCT060TCU
14:30
V
24 °C 10 km+ - 010° 010° 6 kt METAR LFSL 141230Z AUTO 01006KT 340V050 CAVOK 24/15 Q1013 TEMPO SCT060TCU
14:00
V
24 °C 10 km+ - 030° 030° 6 kt METAR LFSL 141200Z AUTO 03006KT 350V070 CAVOK 24/14 Q1013 TEMPO SCT060TCU
13:30
V
22 °C 10 km+ - 350° 350° 7 kt METAR LFSL 141130Z AUTO 35007KT 310V030 CAVOK 22/15 Q1013 NOSIG
13:00
V
21 °C 10 km+ - 320° 320° 7 kt METAR LFSL 141100Z AUTO 32007KT 290V350 CAVOK 21/15 Q1013 NOSIG
12:30
V
21 °C 10 km+ - Var Var 3 kt METAR LFSL 141030Z AUTO VRB03KT CAVOK 21/15 Q1013 NOSIG
12:00
V
21 °C 10 km+ - 010° 010° 4 kt METAR LFSL 141000Z AUTO 01004KT 340V040 CAVOK 21/14 Q1013 NOSIG
11:30
V
20 °C 10 km+ - 340° 340° 5 kt METAR LFSL 140930Z AUTO 34005KT 320V020 CAVOK 20/15 Q1013 NOSIG
11:00
V
21 °C 10 km+ - Var Var 2 kt METAR LFSL 140900Z AUTO VRB02KT 9999 ///TCU 21/13 Q1013 BECMG NSC
10:30
V
20 °C 10 km+ - 100° 100° 5 kt METAR LFSL 140830Z AUTO 10005KT 9999 ///TCU 20/12 Q1012 BECMG NSC
10:00
V
20 °C 10 km+ - 120° 120° 6 kt METAR LFSL 140800Z AUTO 12006KT CAVOK 20/12 Q1012 NOSIG
09:30
V
19 °C 10 km+ - 130° 130° 5 kt METAR LFSL 140730Z AUTO 13005KT 100V160 CAVOK 19/12 Q1012 NOSIG
09:00
V
18 °C 10 km+ - 110° 110° 3 kt METAR LFSL 140700Z AUTO 11003KT 070V160 CAVOK 18/13 Q1012 NOSIG
08:30
V
16 °C 10 km+ - Var Var 3 kt METAR LFSL 140630Z AUTO VRB03KT CAVOK 16/12 Q1012 NOSIG
08:00
V
15 °C 10 km+ - 360° 360° 0 kt METAR LFSL 140600Z AUTO 00000KT CAVOK 15/12 Q1012 NOSIG
07:30
V
13 °C 10 km+ - 360° 360° 0 kt METAR LFSL 140530Z AUTO 00000KT CAVOK 13/11 Q1012 NOSIG
07:00
V
11 °C 10 km+ - 360° 360° 0 kt METAR LFSL 140500Z AUTO 00000KT CAVOK 11/10 Q1012 NOSIG
06:30
V
11 °C 10 km+ - Var Var 1 kt METAR LFSL 140430Z AUTO VRB01KT CAVOK 11/10 Q1012 NOSIG
06:00
V
11 °C 10 km+ - 130° 130° 2 kt METAR LFSL 140400Z AUTO 13002KT CAVOK 11/10 Q1013 NOSIG
05:30
V
11 °C 10 km+ - Var Var 2 kt METAR LFSL 140330Z AUTO VRB02KT CAVOK 11/10 Q1013 NOSIG
05:00
V
10 °C 10 km+ - 360° 360° 0 kt METAR LFSL 140300Z AUTO 00000KT CAVOK 10/09 Q1012 NOSIG
04:30
V
11 °C 10 km+ - 360° 360° 0 kt METAR LFSL 140230Z AUTO 00000KT CAVOK 11/10 Q1013 NOSIG
04:00
V
11 °C 10 km+ - 360° 360° 0 kt METAR LFSL 140200Z AUTO 00000KT CAVOK 11/10 Q1013
03:30
V
11 °C 10 km+ - 360° 360° 0 kt METAR LFSL 140130Z AUTO 00000KT CAVOK 11/10 Q1013
03:00
V
11 °C 10 km+ - 360° 360° 0 kt METAR LFSL 140100Z AUTO 00000KT CAVOK 11/10 Q1013
02:30
V
12 °C 10 km+ - 360° 360° 0 kt METAR LFSL 140030Z AUTO 00000KT CAVOK 12/10 Q1014
02:00
V
12 °C 10 km+ - 360° 360° 0 kt METAR LFSL 140000Z AUTO 00000KT CAVOK 12/11 Q1014
01:30
V
12 °C 10 km+ - 360° 360° 0 kt METAR LFSL 132330Z AUTO 00000KT CAVOK 12/10 Q1014
01:00
V
12 °C 10 km+ - 360° 360° 0 kt METAR LFSL 132300Z AUTO 00000KT CAVOK 12/10 Q1014
00:30
V
13 °C 10 km+ - 360° 360° 0 kt METAR LFSL 132230Z AUTO 00000KT CAVOK 13/11 Q1014
00:00
V
13 °C 10 km+ - 360° 360° 0 kt METAR LFSL 132200Z AUTO 00000KT CAVOK 13/11 Q1014

13 luglio 2024

Tempo Codice Tempo meteorologico Temp. Vista Base nuvolosa Vento METAR/SPECI
23:30
V
14 °C 10 km+ - 360° 360° 0 kt METAR LFSL 132130Z AUTO 00000KT CAVOK 14/11 Q1014
23:00
V
14 °C 10 km+ - 360° 360° 0 kt METAR LFSL 132100Z AUTO 00000KT CAVOK 14/11 Q1014
22:30
V
16 °C 10 km+ - 360° 360° 0 kt METAR LFSL 132030Z AUTO 00000KT CAVOK 16/12 Q1014
22:00
V
17 °C 10 km+ - 360° 360° 0 kt METAR LFSL 132000Z AUTO 00000KT CAVOK 17/12 Q1014 NOSIG
21:30
V
19 °C 10 km+ - Var Var 1 kt METAR LFSL 131930Z AUTO VRB01KT CAVOK 19/11 Q1014 NOSIG
21:00
V
21 °C 10 km+ - 320° 320° 5 kt METAR LFSL 131900Z AUTO 32005KT CAVOK 21/10 Q1014 NOSIG
20:30
V
21 °C 10 km+ - 290° 290° 3 kt METAR LFSL 131830Z AUTO 29003KT 240V330 CAVOK 21/10 Q1014 NOSIG
20:00
V
22 °C 10 km+ - Var Var 2 kt METAR LFSL 131800Z AUTO VRB02KT CAVOK 22/10 Q1014 NOSIG
19:30
V
22 °C 10 km+ - 320° 320° 5 kt METAR LFSL 131730Z AUTO 32005KT 280V350 CAVOK 22/09 Q1014 NOSIG
19:00
V
22 °C 10 km+ - 250° 250° 4 kt METAR LFSL 131700Z AUTO 25004KT 210V300 CAVOK 22/09 Q1014 NOSIG
18:30
V
22 °C 10 km+ - 260° 260° 5 kt METAR LFSL 131630Z AUTO 26005KT 210V340 CAVOK 22/09 Q1014 NOSIG
18:00
V
22 °C 10 km+ - Var Var 3 kt METAR LFSL 131600Z AUTO VRB03KT CAVOK 22/09 Q1014 NOSIG
17:30
V
22 °C 10 km+ - Var Var 4 kt METAR LFSL 131530Z AUTO VRB04KT CAVOK 22/09 Q1014 NOSIG
17:00
V
22 °C 10 km+ - Var Var 4 kt METAR LFSL 131500Z AUTO VRB04KT CAVOK 22/09 Q1014 NOSIG
16:30
V
21 °C 10 km+ - 270° 270° 4 kt METAR LFSL 131430Z AUTO 27004KT 230V310 CAVOK 21/09 Q1015 NOSIG
16:00
V
21 °C 10 km+ - 020° 020° 5 kt METAR LFSL 131400Z AUTO 02005KT 310V100 CAVOK 21/10 Q1015 NOSIG
15:30
V
21 °C 10 km+ - 330° 330° 5 kt METAR LFSL 131330Z AUTO 33005KT 280V020 9999 FEW042 21/10 Q1015 NOSIG
15:00
V
20 °C 10 km+ - 360° 360° 5 kt METAR LFSL 131300Z AUTO 36005KT 290V100 9999 SCT043 20/09 Q1015 NOSIG
14:30
V
20 °C 10 km+ - 340° 340° 7 kt METAR LFSL 131230Z AUTO 34007KT 290V020 9999 SCT042 20/10 Q1016 NOSIG
14:00
V
20 °C 10 km+ 4.000 ft 320° 320° 4 kt METAR LFSL 131200Z AUTO 32004KT 250V050 9999 BKN040 20/09 Q1016 NOSIG
13:30
V
19 °C 10 km+ - Var Var 6 kt METAR LFSL 131130Z AUTO VRB06KT 9999 SCT038 19/09 Q1016 NOSIG
13:00
V
19 °C 10 km+ - 320° 320° 6 kt METAR LFSL 131100Z AUTO 32006KT 210V020 9999 FEW034 19/08 Q1016 NOSIG
12:30
V
18 °C 10 km+ - 310° 310° 6 kt METAR LFSL 131030Z AUTO 31006KT 280V010 9999 SCT034 18/09 Q1016 NOSIG
12:00
V
17 °C 10 km+ - 350° 350° 4 kt METAR LFSL 131000Z AUTO 35004KT 270V050 CAVOK 17/09 Q1016 NOSIG
11:30
V
16 °C 10 km+ - Var Var 4 kt METAR LFSL 130930Z AUTO VRB04KT CAVOK 16/08 Q1016 NOSIG
11:00
V
16 °C 10 km+ - 330° 330° 5 kt METAR LFSL 130900Z AUTO 33005KT 290V010 CAVOK 16/08 Q1017 NOSIG
10:30
V
16 °C 10 km+ - 340° 340° 4 kt METAR LFSL 130830Z AUTO 34004KT 280V030 CAVOK 16/10 Q1017 NOSIG
10:00
V
15 °C 10 km+ - 340° 340° 5 kt METAR LFSL 130800Z AUTO 34005KT 300V020 9999 FEW015 15/08 Q1017 NOSIG
09:30
V
15 °C 10 km+ - Var Var 3 kt METAR LFSL 130730Z AUTO VRB03KT 9999 FEW014 15/11 Q1017 NOSIG
09:00
V
14 °C 10 km+ - Var Var 2 kt METAR LFSL 130700Z AUTO VRB02KT 9999 FEW011 14/11 Q1017 NOSIG
08:30
V
13 °C 10 km+ - 300° 300° 4 kt METAR LFSL 130630Z AUTO 30004KT CAVOK 13/11 Q1017 NOSIG
08:00
V
13 °C 10 km+ - 300° 300° 5 kt METAR LFSL 130600Z AUTO 30005KT CAVOK 13/11 Q1017 NOSIG
07:30
V
11 °C 10 km+ - 280° 280° 3 kt METAR LFSL 130530Z AUTO 28003KT CAVOK 11/10 Q1017 NOSIG
07:00
V
9 °C 10 km+ - 360° 360° 0 kt METAR LFSL 130500Z AUTO 00000KT CAVOK 09/09 Q1017 NOSIG
06:30
V
9 °C 10 km+ - 360° 360° 0 kt METAR LFSL 130430Z AUTO 00000KT CAVOK 09/08 Q1017 NOSIG
06:00
V
9 °C 10 km+ - 360° 360° 0 kt METAR LFSL 130400Z AUTO 00000KT CAVOK 09/08 Q1017 NOSIG
05:30
V
10 °C 10 km+ - 360° 360° 0 kt METAR LFSL 130330Z AUTO 00000KT CAVOK 10/09 Q1017 NOSIG
05:00
V
10 °C 10 km+ - 360° 360° 0 kt METAR LFSL 130300Z AUTO 00000KT 9999 FEW023 SCT034 10/09 Q1017 NOSIG
04:30
M
10 °C 10 km+ 2.400 ft 360° 360° 0 kt METAR LFSL 130230Z AUTO 00000KT 9999 BKN024 BKN041 10/09 Q1017
04:00
V
10 °C 10 km+ - Var Var 1 kt METAR LFSL 130200Z AUTO VRB01KT 9999 SCT042 10/09 Q1017
03:30
V
11 °C 10 km+ - 360° 360° 0 kt METAR LFSL 130130Z AUTO 00000KT CAVOK 11/10 Q1018
03:00
V
11 °C 10 km+ - 360° 360° 0 kt METAR LFSL 130100Z AUTO 00000KT CAVOK 11/10 Q1018
02:30
V
11 °C 10 km+ - 360° 360° 0 kt METAR LFSL 130030Z AUTO 00000KT CAVOK 11/10 Q1018
02:00
V
11 °C 10 km+ - 360° 360° 0 kt METAR LFSL 130000Z AUTO 00000KT CAVOK 11/10 Q1018
01:30
V
11 °C 10 km+ - 360° 360° 0 kt METAR LFSL 122330Z AUTO 00000KT CAVOK 11/09 Q1018
01:00
V
12 °C 10 km+ - 360° 360° 0 kt METAR LFSL 122300Z AUTO 00000KT CAVOK 12/09 Q1018
00:30
V
13 °C 10 km+ - 300° 300° 2 kt METAR LFSL 122230Z AUTO 30002KT CAVOK 13/09 Q1018
00:00
V
13 °C 10 km+ - 280° 280° 3 kt METAR LFSL 122200Z AUTO 28003KT 250V310 CAVOK 13/08 Q1018

12 luglio 2024

Tempo Codice Tempo meteorologico Temp. Vista Base nuvolosa Vento METAR/SPECI
23:30
V
14 °C 10 km+ - Var Var 3 kt METAR LFSL 122130Z AUTO VRB03KT CAVOK 14/08 Q1018
23:00
V
15 °C 10 km+ - 280° 280° 5 kt METAR LFSL 122100Z AUTO 28005KT 240V310 CAVOK 15/08 Q1018
22:30
V
15 °C 10 km+ - 280° 280° 5 kt METAR LFSL 122030Z AUTO 28005KT 240V310 CAVOK 15/08 Q1018
22:00
V
16 °C 10 km+ - 280° 280° 5 kt METAR LFSL 122000Z AUTO 28005KT CAVOK 16/08 Q1018 NOSIG
21:30
V
18 °C 10 km+ - 280° 280° 6 kt METAR LFSL 121930Z AUTO 28006KT 250V310 CAVOK 18/08 Q1018 NOSIG
21:00
V
19 °C 10 km+ - 290° 290° 7 kt METAR LFSL 121900Z AUTO 29007KT 260V320 CAVOK 19/11 Q1017 NOSIG
20:30
V
20 °C 10 km+ - 280° 280° 7 kt METAR LFSL 121830Z AUTO 28007KT 250V310 CAVOK 20/11 Q1017 NOSIG
20:00
V
21 °C 10 km+ - 290° 290° 9 kt METAR LFSL 121800Z AUTO 29009KT 250V320 9999 FEW041 SCT060 21/11 Q1017 NOSIG
19:30
V
21 °C 10 km+ 6.000 ft 290° 290° 7 kt METAR LFSL 121730Z AUTO 29007KT 250V320 9999 FEW039 BKN060 21/12 Q1017 NOSIG
19:00
V
21 °C 10 km+ - 290° 290° 8 kt METAR LFSL 121700Z AUTO 29008KT 240V330 9999 FEW038 SCT058 21/12 Q1017 NOSIG
18:30
V
21 °C 10 km+ 3.500 ft 300° 300° 8 kt METAR LFSL 121630Z AUTO 30008KT 230V330 9999 BKN035 BKN042 BKN050 21/13 Q1017 NOSIG
18:00
V
22 °C 10 km+ 5.200 ft 280° 280° 6 kt METAR LFSL 121600Z AUTO 28006KT 230V330 9999 SCT036 SCT046 BKN052 22/13 Q1017 NOSIG
17:30
V
20 °C 10 km+ 4.100 ft 330° 330° 9 kt METAR LFSL 121530Z AUTO 33009KT 300V360 9999 SCT034 BKN041 BKN047 20/13 Q1017 NOSIG
17:00
V
21 °C 10 km+ 4.800 ft 280° 280° 8 kt METAR LFSL 121500Z AUTO 28008KT 240V320 9999 SCT035 BKN048 BKN060 21/12 Q1017 NOSIG
16:30
M
20 °C 10 km+ 3.000 ft 300° 300° 10 kt METAR LFSL 121430Z AUTO 30010KT 270V330 9999 BKN030 BKN036 BKN048 20/13 Q1018 NOSIG
16:00
M
20 °C 10 km+ 2.700 ft 300° 300° 11 kt METAR LFSL 121400Z AUTO 30011KT 260V330 9999 BKN027 BKN033 BKN048 20/13 Q1018 TEMPO 4500 -SHRA BKN010 BKN025TCU
15:30
M
21 °C 10 km+ 2.300 ft 290° 290° 11 kt METAR LFSL 121330Z AUTO 29011KT 250V320 9999 BKN023 BKN028 BKN058 21/14 Q1017 TEMPO 4500 -SHRA BKN010 BKN025TCU
15:00
V
21 °C 10 km+ 5.600 ft 300° 300° 12 kt METAR LFSL 121300Z AUTO 30012KT 9999 SCT022 SCT029 BKN056 21/15 Q1017 TEMPO 4500 -SHRA BKN010 BKN025TCU
14:30
V
20 °C 10 km+ 5.400 ft 290° 290° 11 kt METAR LFSL 121230Z AUTO 29011KT 260V320 9999 FEW019 SCT030 OVC054 20/15 Q1017 TEMPO 4500 -SHRA BKN010 BKN025TCU
14:00
M
19 °C 10 km+ 1.900 ft 300° 300° 13 kt METAR LFSL 121200Z AUTO 30013KT 260V330 9999 BKN019 BKN026 BKN038 19/15 Q1017 TEMPO 4500 -SHRA BKN010 BKN025TCU
13:30
V
19 °C 10 km+ 3.700 ft 280° 280° 8 kt METAR LFSL 121130Z AUTO 28008KT 250V320 9999 FEW018 SCT025 BKN037 19/16 Q1017 NOSIG
13:00
M
18 °C 10 km+ 2.400 ft 280° 280° 7 kt METAR LFSL 121100Z AUTO 28007KT 250V320 9999 FEW013 SCT018 BKN024 18/16 Q1017 NOSIG
12:30
M
19 °C 10 km+ 1.000 ft 290° 290° 9 kt METAR LFSL 121030Z AUTO 29009KT 250V320 9999 BKN010 BKN016 OVC048 19/17 Q1016 BECMG SCT030
12:00
I
18 °C 10 km+ 700 ft 270° 270° 8 kt METAR LFSL 121000Z AUTO 27008KT 240V310 9999 BKN007/// BKN011/// BKN019/// ///CB 18/17 Q1016 BECMG SCT030
11:30
I
18 °C 6 km 700 ft 290° 290° 10 kt METAR LFSL 120930Z AUTO 29010KT 260V320 6000 -RA BKN007/// OVC017/// ///CB 18/16 Q1016 TEMPO 4000 -SHRA BECMG SCT030
11:00
M
20 °C 9 km 2.100 ft 240° 240° 4 kt METAR LFSL 120900Z AUTO 24004KT 190V280 9000 -RA SCT013/// BKN021/// BKN030/// ///CB 20/17 Q1016 TEMPO 4000 -SHRA BKN004 BKN020TCU
10:30
M
20 °C 10 km+ 1.100 ft 210° 210° 5 kt METAR LFSL 120830Z AUTO 21005KT 160V240 9999 FEW007/// BKN011/// BKN020/// //////CB 20/17 Q1016 TEMPO 4000 -SHRA BKN004 BKN020TCU
10:00
M
19 °C 7 km 1.200 ft 200° 200° 5 kt METAR LFSL 120800Z AUTO 20005KT 170V240 7000 -RA BKN012/// BKN019/// OVC025/// ///TCU 19/17 Q1016 TEMPO 3000 SHRA BKN005 BKN020TCU
09:30
M
19 °C 10 km+ 2.000 ft 250° 250° 4 kt METAR LFSL 120730Z AUTO 25004KT 200V330 9999 SCT010/// BKN020/// OVC025/// ///TCU 19/16 Q1016 TEMPO 3000 SHRA BKN005 BKN020TCU
09:00
M
19 °C 10 km+ 1.000 ft 270° 270° 3 kt METAR LFSL 120700Z AUTO 27003KT 220V320 9999 BKN010 BKN016 BKN024 19/17 Q1016 TEMPO 3000 SHRA BKN005 BKN020TCU
08:30
I
19 °C 10 km+ 900 ft 260° 260° 6 kt METAR LFSL 120630Z AUTO 26006KT 220V300 9999 BKN009 BKN014 OVC027 19/17 Q1016 TEMPO 3000 SHRA BKN005 BKN020TCU
08:00
V
19 °C 10 km+ 3.700 ft 260° 260° 4 kt METAR LFSL 120600Z AUTO 26004KT 210V290 9999 FEW013 SCT026 OVC037 19/17 Q1016 TEMPO 3000 SHRA SCT030CB
Segnala modifiche